Time;durP1;ratioP1;P1;durP2;ratioP2;P2;SDS_P1;SDS_P2;PMS_P1;PMS_P2;Temp;Humidity;BMP_temperature;BMP_pressure;BME280_temperature;BME280_humidity;BME280_pressure;Samples;Min_cycle;Max_cycle;Signal;HPM_P1;HPM_P2
2021/10/25 00:00:09;;;;;;;15.43;8.87;;;;;;;;;;5012051;28;20503;-69
2021/10/25 00:02:40;;;;;;;13.73;8.57;;;;;;;;;;5027691;28;20440;-68
2021/10/25 00:05:07;;;;;;;19.10;9.07;;;;;;;;;;5028233;28;20494;-70
2021/10/25 00:07:34;;;;;;;15.50;8.83;;;;;;;;;;5023138;28;20476;-68
2021/10/25 00:10:01;;;;;;;15.53;8.37;;;;;;;;;;5023814;28;20440;-70
2021/10/25 00:12:27;;;;;;;20.57;9.67;;;;;;;;;;5015922;28;20444;-68
2021/10/25 00:14:56;;;;;;;24.83;9.70;;;;;;;;;;5029797;28;20440;-70
2021/10/25 00:17:23;;;;;;;20.73;10.30;;;;;;;;;;5021786;28;20443;-70
2021/10/25 00:19:50;;;;;;;21.33;10.57;;;;;;;;;;5029365;28;20440;-69
2021/10/25 00:22:17;;;;;;;18.90;10.23;;;;;;;;;;5029551;28;20439;-70
2021/10/25 00:24:44;;;;;;;28.30;11.13;;;;;;;;;;5030207;28;20501;-69
2021/10/25 00:27:13;;;;;;;22.57;11.10;;;;;;;;;;5030434;28;20446;-69
2021/10/25 00:29:41;;;;;;;22.70;10.63;;;;;;;;;;5030133;28;20451;-69
2021/10/25 00:32:08;;;;;;;19.17;9.67;;;;;;;;;;5022629;28;20440;-68
2021/10/25 00:34:37;;;;;;;20.27;9.70;;;;;;;;;;5020103;28;20974;-68
2021/10/25 00:37:04;;;;;;;16.10;9.90;;;;;;;;;;5025278;28;20451;-70
2021/10/25 00:39:31;;;;;;;14.60;8.83;;;;;;;;;;5029197;28;20452;-71
2021/10/25 00:42:00;;;;;;;15.43;8.57;;;;;;;;;;5026583;28;20444;-69
2021/10/25 00:44:28;;;;;;;13.70;8.80;;;;;;;;;;5015177;28;21036;-69
2021/10/25 00:46:55;;;;;;;12.83;8.70;;;;;;;;;;5014698;28;20486;-69
2021/10/25 00:49:25;;;;;;;13.90;8.23;;;;;;;;;;5017350;28;20972;-69
2021/10/25 00:51:54;;;;;;;15.40;8.20;;;;;;;;;;5010126;28;21148;-68
2021/10/25 00:54:23;;;;;;;13.77;8.33;;;;;;;;;;5012764;28;20448;-69
2021/10/25 00:56:50;;;;;;;12.70;8.50;;;;;;;;;;5010157;28;20436;-69
2021/10/25 00:59:16;;;;;;;11.17;7.50;;;;;;;;;;5011999;28;20448;-70
2021/10/25 01:01:43;;;;;;;12.77;7.47;;;;;;;;;;5012493;28;20447;-70
2021/10/25 01:04:12;;;;;;;13.60;8.27;;;;;;;;;;5006412;28;20487;-70
2021/10/25 01:06:42;;;;;;;16.30;8.07;;;;;;;;;;5003824;28;20530;-68
2021/10/25 01:09:09;;;;;;;12.70;8.60;;;;;;;;;;5021896;28;20472;-69
2021/10/25 01:11:36;;;;;;;14.37;8.87;;;;;;;;;;5020487;28;20968;-70
2021/10/25 01:14:03;;;;;;;13.53;8.80;;;;;;;;;;5025357;28;20825;-70
2021/10/25 01:16:31;;;;;;;14.70;8.40;;;;;;;;;;5013210;28;20442;-69
2021/10/25 01:18:57;;;;;;;12.77;8.63;;;;;;;;;;5016448;28;20455;-69
2021/10/25 01:21:24;;;;;;;11.00;7.80;;;;;;;;;;5017520;28;20443;-70
2021/10/25 01:23:52;;;;;;;16.50;8.17;;;;;;;;;;5027696;28;21016;-69
2021/10/25 01:26:21;;;;;;;16.43;8.60;;;;;;;;;;5017509;28;20448;-70
2021/10/25 01:28:51;;;;;;;13.80;9.00;;;;;;;;;;5023288;28;20962;-69
2021/10/25 01:31:18;;;;;;;14.20;9.10;;;;;;;;;;5011381;28;21145;-70
2021/10/25 01:33:47;;;;;;;16.93;8.80;;;;;;;;;;4998412;28;20554;-69
2021/10/25 01:36:16;;;;;;;15.40;9.43;;;;;;;;;;5017668;28;20462;-69
2021/10/25 01:38:43;;;;;;;12.50;8.63;;;;;;;;;;5008577;28;20544;-70
2021/10/25 01:41:12;;;;;;;16.40;9.40;;;;;;;;;;5011501;28;20440;-69
2021/10/25 01:43:39;;;;;;;16.37;9.10;;;;;;;;;;5018697;28;20619;-68
2021/10/25 01:46:09;;;;;;;14.03;8.77;;;;;;;;;;5020022;28;20451;-69
2021/10/25 01:48:37;;;;;;;17.83;9.23;;;;;;;;;;5013741;28;20538;-68
2021/10/25 01:51:06;;;;;;;16.90;9.20;;;;;;;;;;5014798;28;20467;-68
2021/10/25 01:53:37;;;;;;;14.00;9.33;;;;;;;;;;5010209;28;20983;-68
2021/10/25 01:56:09;;;;;;;15.47;9.63;;;;;;;;;;5009097;28;20510;-68
2021/10/25 01:58:38;;;;;;;13.20;9.17;;;;;;;;;;5026124;28;20445;-68
2021/10/25 02:01:06;;;;;;;18.87;8.77;;;;;;;;;;5008167;28;20812;-69
2021/10/25 02:03:34;;;;;;;14.23;9.30;;;;;;;;;;5008975;28;20536;-69
2021/10/25 02:06:13;;;;;;;12.93;9.30;;;;;;;;;;5013570;28;20981;-69
2021/10/25 02:08:40;;;;;;;13.77;9.80;;;;;;;;;;5016788;28;20471;-68
2021/10/25 02:11:10;;;;;;;13.07;9.80;;;;;;;;;;5009333;28;20453;-69
2021/10/25 02:13:42;;;;;;;15.60;9.73;;;;;;;;;;5020137;28;20455;-69
2021/10/25 02:16:11;;;;;;;13.17;9.27;;;;;;;;;;5018249;28;20529;-70
2021/10/25 02:18:38;;;;;;;17.43;9.10;;;;;;;;;;5004172;28;20451;-68
2021/10/25 02:21:10;;;;;;;15.17;9.70;;;;;;;;;;5005424;28;20444;-70
2021/10/25 02:23:37;;;;;;;15.00;8.77;;;;;;;;;;5017207;28;20433;-68
2021/10/25 02:26:05;;;;;;;19.90;10.20;;;;;;;;;;5003710;28;20449;-69
2021/10/25 02:28:32;;;;;;;16.60;9.70;;;;;;;;;;5025935;28;20443;-68
2021/10/25 02:30:59;;;;;;;17.60;9.63;;;;;;;;;;5012302;28;20961;-69
2021/10/25 02:33:35;;;;;;;18.47;9.67;;;;;;;;;;5029233;28;20467;-69
2021/10/25 02:36:06;;;;;;;17.83;9.93;;;;;;;;;;5028489;28;20461;-70
2021/10/25 02:38:38;;;;;;;14.60;9.00;;;;;;;;;;5031920;28;20804;-69
2021/10/25 02:41:08;;;;;;;16.00;9.70;;;;;;;;;;5023226;28;20476;-69
2021/10/25 02:43:35;;;;;;;15.37;9.60;;;;;;;;;;5010718;28;20448;-70
2021/10/25 02:46:04;;;;;;;16.60;9.03;;;;;;;;;;5015324;28;20539;-68
2021/10/25 02:48:33;;;;;;;15.33;9.00;;;;;;;;;;5017612;28;20495;-68
2021/10/25 02:51:05;;;;;;;12.53;8.40;;;;;;;;;;5010566;28;20631;-70
2021/10/25 02:53:32;;;;;;;11.50;7.60;;;;;;;;;;5005565;28;21236;-69
2021/10/25 02:56:02;;;;;;;11.20;7.93;;;;;;;;;;5014756;28;20543;-69
2021/10/25 02:58:29;;;;;;;13.10;8.03;;;;;;;;;;5014724;28;20457;-70
2021/10/25 03:00:58;;;;;;;14.77;7.80;;;;;;;;;;5018812;28;20869;-70
2021/10/25 03:03:26;;;;;;;11.35;7.95;;;;;;;;;;5021251;28;20432;-70
2021/10/25 03:05:53;;;;;;;14.73;8.57;;;;;;;;;;5027894;28;20209;-70
2021/10/25 03:08:22;;;;;;;13.07;8.03;;;;;;;;;;5021968;28;20467;-69
2021/10/25 03:10:49;;;;;;;13.40;8.27;;;;;;;;;;5029756;28;20444;-69
2021/10/25 03:13:18;;;;;;;12.17;7.93;;;;;;;;;;5018099;28;20531;-70
2021/10/25 03:15:45;;;;;;;16.80;8.07;;;;;;;;;;5021567;28;20468;-72
2021/10/25 03:18:14;;;;;;;14.87;8.33;;;;;;;;;;5022410;28;20433;-69
2021/10/25 03:20:41;;;;;;;12.67;8.20;;;;;;;;;;5037759;28;20440;-69
2021/10/25 03:23:08;;;;;;;13.17;8.83;;;;;;;;;;5033937;28;20498;-72
2021/10/25 03:25:35;;;;;;;17.10;8.47;;;;;;;;;;5034069;28;20483;-70
2021/10/25 03:28:03;;;;;;;16.00;10.10;;;;;;;;;;5031162;28;20443;-69
2021/10/25 03:30:34;;;;;;;17.67;10.97;;;;;;;;;;5029688;28;20436;-73
2021/10/25 03:33:04;;;;;;;22.27;13.33;;;;;;;;;;5030006;28;20456;-69
2021/10/25 03:35:31;;;;;;;22.00;13.77;;;;;;;;;;5017385;28;20448;-68
2021/10/25 03:37:59;;;;;;;22.63;13.33;;;;;;;;;;5028866;28;20209;-68
2021/10/25 03:40:30;;;;;;;24.20;15.33;;;;;;;;;;5027652;28;20820;-70
2021/10/25 03:42:58;;;;;;;32.85;16.65;;;;;;;;;;5010882;28;20895;-69
2021/10/25 03:45:34;;;;;;;29.10;17.63;;;;;;;;;;5010484;28;20226;-69
2021/10/25 03:50:44;;;;;;;27.53;14.70;;;;;;;;;;5019368;28;20536;-70
2021/10/25 04:28:46;;;;;;;22.02;11.45;;;;;;;;;;5007056;28;20197;-70
2021/10/25 04:31:13;;;;;;;21.00;11.07;;;;;;;;;;5018330;28;20194;-71
2021/10/25 04:33:45;;;;;;;21.52;11.10;;;;;;;;;;5025505;28;20484;-69
2021/10/25 04:36:26;;;;;;;20.25;10.32;;;;;;;;;;5019442;28;20304;-71
2021/10/25 04:39:09;;;;;;;20.15;10.90;;;;;;;;;;5014673;28;20485;-70
2021/10/25 04:41:37;;;;;;;18.33;10.30;;;;;;;;;;5028260;28;20303;-69
2021/10/25 04:44:05;;;;;;;17.63;9.93;;;;;;;;;;5027841;28;20193;-74
2021/10/25 04:46:32;;;;;;;21.15;13.38;;;;;;;;;;5027584;28;20196;-67
2021/10/25 04:48:59;;;;;;;23.30;14.30;;;;;;;;;;5028365;28;20213;-68
2021/10/25 04:51:34;;;;;;;98.20;69.07;;;;;;;;;;5027619;28;20201;-69
2021/10/25 04:54:23;;;;;;;22.33;11.40;;;;;;;;;;5018330;28;20440;-68
2021/10/25 04:56:51;;;;;;;20.75;10.73;;;;;;;;;;5027766;28;20428;-68
2021/10/25 04:59:18;;;;;;;20.73;11.57;;;;;;;;;;5028286;28;20216;-65
2021/10/25 05:01:45;;;;;;;23.67;12.25;;;;;;;;;;5029247;28;20443;-65
2021/10/25 05:04:12;;;;;;;89.57;70.53;;;;;;;;;;5028146;28;20201;-64
2021/10/25 05:06:41;;;;;;;428.50;340.95;;;;;;;;;;5014838;28;20449;-66
2021/10/25 05:09:08;;;;;;;113.80;74.20;;;;;;;;;;5021421;28;20233;-66
2021/10/25 05:11:36;;;;;;;21.33;14.00;;;;;;;;;;5016032;28;20444;-66
2021/10/25 05:14:03;;;;;;;18.05;12.52;;;;;;;;;;5025058;28;20459;-67
2021/10/25 05:16:30;;;;;;;19.70;11.60;;;;;;;;;;5022245;28;20295;-66
2021/10/25 05:19:16;;;;;;;18.43;11.87;;;;;;;;;;5017741;28;20443;-66
2021/10/25 05:21:48;;;;;;;21.97;10.83;;;;;;;;;;5026787;28;20448;-66
2021/10/25 05:24:15;;;;;;;18.43;11.07;;;;;;;;;;5016821;28;20486;-66
2021/10/25 05:26:42;;;;;;;16.63;11.63;;;;;;;;;;5024756;28;20450;-66
2021/10/25 05:29:08;;;;;;;19.90;12.80;;;;;;;;;;5015953;28;20437;-65
2021/10/25 05:31:37;;;;;;;26.43;12.67;;;;;;;;;;5010254;28;20817;-64
2021/10/25 05:34:04;;;;;;;19.60;11.70;;;;;;;;;;5020666;28;20440;-64
2021/10/25 05:36:31;;;;;;;18.97;12.03;;;;;;;;;;5019535;28;20448;-64
2021/10/25 05:38:58;;;;;;;19.93;13.53;;;;;;;;;;5024678;28;20837;-65
2021/10/25 05:41:27;;;;;;;16.60;11.57;;;;;;;;;;5028001;28;20435;-68
2021/10/25 05:43:53;;;;;;;44.23;26.83;;;;;;;;;;5031077;28;20446;-65
2021/10/25 05:46:21;;;;;;;39.00;22.83;;;;;;;;;;5023084;28;20491;-64
2021/10/25 05:48:50;;;;;;;106.90;64.27;;;;;;;;;;5026250;28;20471;-65
2021/10/25 05:51:18;;;;;;;29.07;17.40;;;;;;;;;;5040408;28;21022;-65
2021/10/25 05:53:46;;;;;;;29.93;15.93;;;;;;;;;;5026952;28;20441;-65
2021/10/25 05:56:14;;;;;;;24.07;14.97;;;;;;;;;;5022117;28;20800;-65
2021/10/25 05:58:41;;;;;;;27.23;13.93;;;;;;;;;;5033341;28;20507;-67
2021/10/25 06:01:13;;;;;;;20.37;12.50;;;;;;;;;;5023447;28;20725;-65
2021/10/25 06:04:05;;;;;;;17.97;11.93;;;;;;;;;;5032862;28;20436;-64
2021/10/25 06:06:38;;;;;;;15.07;11.23;;;;;;;;;;5018941;28;20924;-65
2021/10/25 06:09:06;;;;;;;24.13;12.10;;;;;;;;;;5032161;28;20896;-65
2021/10/25 06:11:35;;;;;;;17.30;11.13;;;;;;;;;;5033133;28;20451;-66
2021/10/25 06:14:05;;;;;;;22.43;12.47;;;;;;;;;;5033199;28;20536;-66
2021/10/25 06:16:42;;;;;;;18.93;11.90;;;;;;;;;;5018141;28;20460;-63
2021/10/25 06:19:15;;;;;;;21.00;12.07;;;;;;;;;;5027967;28;20514;-66
2021/10/25 06:21:42;;;;;;;19.00;11.57;;;;;;;;;;5042710;28;20576;-65
2021/10/25 06:24:17;;;;;;;18.87;12.77;;;;;;;;;;5027734;28;20429;-65
2021/10/25 06:27:02;;;;;;;21.03;12.70;;;;;;;;;;5015665;28;20435;-65
2021/10/25 06:29:30;;;;;;;21.63;12.13;;;;;;;;;;5021372;28;20444;-65
2021/10/25 06:31:58;;;;;;;17.90;12.40;;;;;;;;;;5026460;28;20535;-65
2021/10/25 06:34:33;;;;;;;26.67;13.57;;;;;;;;;;5027360;28;20459;-65
2021/10/25 06:37:51;;;;;;;20.70;13.03;;;;;;;;;;5030344;28;20443;-64
2021/10/25 06:40:20;;;;;;;19.50;13.93;;;;;;;;;;5016712;28;20440;-66
2021/10/25 06:42:48;;;;;;;18.50;13.23;;;;;;;;;;5030049;28;20447;-65
2021/10/25 06:45:22;;;;;;;22.43;13.97;;;;;;;;;;5017086;28;20465;-65
2021/10/25 06:47:53;;;;;;;24.83;13.03;;;;;;;;;;5010590;28;20518;-64
2021/10/25 06:50:22;;;;;;;24.60;13.10;;;;;;;;;;5026079;28;20448;-65
2021/10/25 06:52:52;;;;;;;16.40;12.13;;;;;;;;;;5011914;28;20473;-65
2021/10/25 06:55:22;;;;;;;25.93;13.60;;;;;;;;;;5022400;28;20476;-65
2021/10/25 06:57:58;;;;;;;20.47;12.80;;;;;;;;;;5036670;28;20463;-65
2021/10/25 07:00:28;;;;;;;17.93;11.93;;;;;;;;;;5029071;28;20445;-65
2021/10/25 07:02:55;;;;;;;22.43;13.50;;;;;;;;;;5020247;28;20966;-65
2021/10/25 07:05:29;;;;;;;18.83;13.93;;;;;;;;;;5029876;28;20487;-66
2021/10/25 07:07:58;;;;;;;15.90;11.70;;;;;;;;;;5030122;28;20475;-65
2021/10/25 07:10:27;;;;;;;16.47;10.53;;;;;;;;;;5030526;28;20816;-65
2021/10/25 07:13:14;;;;;;;19.30;11.33;;;;;;;;;;5031208;28;20455;-65
2021/10/25 07:15:49;;;;;;;20.23;11.13;;;;;;;;;;5030293;28;20440;-65
2021/10/25 07:18:25;;;;;;;16.90;9.93;;;;;;;;;;5014686;28;20448;-66
2021/10/25 08:04:09;;;;;;;9.07;6.43;;;;;;;;;;5008279;28;20444;-65
2021/10/25 08:08:30;;;;;;;10.17;6.53;;;;;;;;;;5029714;28;20460;-64
2021/10/25 08:11:06;;;;;;;10.80;6.43;;;;;;;;;;5023849;28;20440;-65
2021/10/25 08:13:44;;;;;;;10.43;6.47;;;;;;;;;;5010494;28;20448;-64
2021/10/25 08:21:14;;;;;;;11.57;6.13;;;;;;;;;;5021820;28;20445;-66
2021/10/25 08:23:41;;;;;;;10.90;5.60;;;;;;;;;;5025718;28;20464;-65
2021/10/25 08:26:28;;;;;;;10.60;5.47;;;;;;;;;;5022641;28;20497;-65
2021/10/25 08:29:00;;;;;;;8.73;5.27;;;;;;;;;;5014891;28;21015;-64
2021/10/25 08:31:28;;;;;;;13.83;5.37;;;;;;;;;;5016437;28;20457;-66
2021/10/25 08:34:24;;;;;;;8.20;5.07;;;;;;;;;;5029351;28;20510;-66
2021/10/25 08:39:53;;;;;;;8.50;5.47;;;;;;;;;;5028625;28;20517;-66
2021/10/25 08:42:27;;;;;;;7.77;4.37;;;;;;;;;;5027943;28;20538;-66
2021/10/25 08:45:03;;;;;;;10.23;4.90;;;;;;;;;;5016992;28;20449;-65
2021/10/25 08:47:41;;;;;;;9.67;4.50;;;;;;;;;;5016833;28;20441;-66
2021/10/25 08:50:09;;;;;;;11.53;4.30;;;;;;;;;;5022265;28;20470;-66
2021/10/25 08:52:37;;;;;;;6.87;4.37;;;;;;;;;;5018285;28;20450;-65
2021/10/25 08:55:05;;;;;;;10.77;4.30;;;;;;;;;;5027311;28;20502;-65
2021/10/25 08:57:33;;;;;;;10.00;3.93;;;;;;;;;;5008217;28;20445;-65
2021/10/25 09:00:06;;;;;;;7.13;3.90;;;;;;;;;;5008754;28;20859;-66
2021/10/25 09:02:55;;;;;;;7.90;3.97;;;;;;;;;;5013299;28;20459;-66
2021/10/25 09:05:23;;;;;;;6.60;3.57;;;;;;;;;;5024291;28;20463;-66
2021/10/25 09:07:52;;;;;;;9.03;3.90;;;;;;;;;;5027551;28;20479;-66
2021/10/25 09:10:25;;;;;;;6.17;3.53;;;;;;;;;;5027892;28;20447;-65
2021/10/25 09:12:54;;;;;;;6.20;3.83;;;;;;;;;;5027605;28;20483;-66
2021/10/25 09:15:23;;;;;;;7.37;3.60;;;;;;;;;;5032309;28;20478;-65
2021/10/25 09:18:16;;;;;;;8.60;3.93;;;;;;;;;;5039988;28;20890;-65
2021/10/25 09:20:43;;;;;;;7.53;3.70;;;;;;;;;;5034656;28;20435;-65
2021/10/25 09:23:12;;;;;;;8.47;4.03;;;;;;;;;;5021574;28;21522;-64
2021/10/25 09:25:41;;;;;;;7.80;3.20;;;;;;;;;;5017638;28;20905;-64
2021/10/25 09:28:20;;;;;;;7.93;4.37;;;;;;;;;;5043457;28;20455;-64
2021/10/25 09:30:48;;;;;;;4.90;3.03;;;;;;;;;;5015981;28;20436;-65
2021/10/25 09:33:21;;;;;;;6.73;2.70;;;;;;;;;;5023858;28;20586;-65
2021/10/25 09:36:10;;;;;;;4.87;2.90;;;;;;;;;;5022183;28;20455;-66
2021/10/25 09:49:35;;;;;;;7.17;3.03;;;;;;;;;;5033658;28;20462;-64
2021/10/25 09:52:04;;;;;;;5.43;2.80;;;;;;;;;;5019505;28;20509;-65
2021/10/25 09:54:33;;;;;;;5.00;3.00;;;;;;;;;;5034534;28;20578;-66
2021/10/25 09:57:04;;;;;;;7.30;3.17;;;;;;;;;;5033388;28;20513;-65
2021/10/25 09:59:53;;;;;;;5.93;3.27;;;;;;;;;;5024870;28;20506;-64
2021/10/25 10:02:43;;;;;;;6.17;3.73;;;;;;;;;;5015386;28;20475;-66
2021/10/25 10:05:17;;;;;;;5.80;3.40;;;;;;;;;;5014214;28;20453;-66
2021/10/25 10:07:47;;;;;;;8.30;3.60;;;;;;;;;;5021865;28;20488;-66
2021/10/25 10:10:23;;;;;;;10.40;4.20;;;;;;;;;;5032140;28;20562;-65
2021/10/25 10:12:53;;;;;;;4.63;3.30;;;;;;;;;;5034611;28;20439;-66
2021/10/25 10:15:31;;;;;;;6.30;3.43;;;;;;;;;;5022179;28;20598;-65
2021/10/25 10:18:19;;;;;;;6.90;3.40;;;;;;;;;;5014565;28;20483;-65
2021/10/25 10:21:05;;;;;;;4.67;3.30;;;;;;;;;;5025710;28;20446;-65
2021/10/25 10:23:35;;;;;;;6.17;3.60;;;;;;;;;;5033564;28;20435;-66
2021/10/25 10:26:03;;;;;;;5.57;3.47;;;;;;;;;;5023053;28;20479;-65
2021/10/25 10:28:36;;;;;;;6.90;3.50;;;;;;;;;;5028958;28;20445;-66
2021/10/25 10:31:04;;;;;;;5.70;3.70;;;;;;;;;;5030508;28;20498;-66
2021/10/25 10:33:34;;;;;;;11.93;4.03;;;;;;;;;;5027290;28;20452;-65
2021/10/25 10:36:09;;;;;;;9.20;4.30;;;;;;;;;;5035051;28;20456;-66
2021/10/25 10:38:51;;;;;;;8.60;3.60;;;;;;;;;;5030187;28;20497;-66
2021/10/25 10:41:36;;;;;;;10.87;3.50;;;;;;;;;;5019924;28;20840;-67
2021/10/25 10:44:14;;;;;;;7.67;3.57;;;;;;;;;;5024627;28;21020;-67
2021/10/25 10:46:54;;;;;;;6.77;3.57;;;;;;;;;;5010191;28;20474;-67
2021/10/25 10:49:27;;;;;;;5.30;3.30;;;;;;;;;;5022910;28;20646;-67
2021/10/25 10:52:26;;;;;;;3.43;2.80;;;;;;;;;;5031344;28;20498;-67
2021/10/25 10:55:11;;;;;;;8.50;3.23;;;;;;;;;;5027335;28;20611;-66
2021/10/25 11:00:23;;;;;;;6.57;3.47;;;;;;;;;;5031967;28;20431;-66
2021/10/25 11:03:00;;;;;;;12.63;4.20;;;;;;;;;;5022235;28;20451;-66
2021/10/25 11:05:29;;;;;;;11.60;3.70;;;;;;;;;;5015538;28;20439;-66
2021/10/25 11:07:59;;;;;;;5.33;3.47;;;;;;;;;;5031869;28;20491;-66
2021/10/25 11:10:28;;;;;;;6.53;3.70;;;;;;;;;;5031783;28;20521;-66
2021/10/25 11:13:01;;;;;;;7.53;3.30;;;;;;;;;;5023615;28;20471;-66
2021/10/25 11:15:36;;;;;;;6.70;3.20;;;;;;;;;;5012436;28;20449;-67
2021/10/25 11:18:04;;;;;;;8.23;3.70;;;;;;;;;;5011881;28;20436;-66
2021/10/25 11:20:32;;;;;;;10.40;4.17;;;;;;;;;;5018364;28;20454;-66
2021/10/25 11:23:03;;;;;;;7.07;2.90;;;;;;;;;;5031149;28;20448;-65
2021/10/25 11:25:36;;;;;;;7.20;3.30;;;;;;;;;;5026330;28;20496;-67
2021/10/25 11:28:18;;;;;;;4.60;3.33;;;;;;;;;;5011088;28;20986;-66
2021/10/25 11:30:45;;;;;;;7.87;3.37;;;;;;;;;;5017372;28;20443;-66
2021/10/25 11:33:15;;;;;;;4.53;3.03;;;;;;;;;;5031135;28;20502;-66
2021/10/25 11:35:45;;;;;;;5.80;3.20;;;;;;;;;;5031225;28;20450;-65
2021/10/25 11:38:13;;;;;;;7.63;3.50;;;;;;;;;;5023815;28;20456;-65
2021/10/25 11:40:40;;;;;;;5.30;2.93;;;;;;;;;;5034437;28;20454;-67
2021/10/25 11:43:07;;;;;;;7.00;2.87;;;;;;;;;;5036509;28;20482;-66
2021/10/25 11:45:33;;;;;;;5.67;2.93;;;;;;;;;;5031454;28;20452;-65
2021/10/25 11:48:00;;;;;;;4.97;2.40;;;;;;;;;;5017780;28;20475;-67
2021/10/25 11:50:28;;;;;;;3.33;2.50;;;;;;;;;;5030304;28;20447;-66
2021/10/25 11:53:01;;;;;;;7.37;3.13;;;;;;;;;;5019063;28;20448;-66
2021/10/25 11:55:31;;;;;;;8.93;2.70;;;;;;;;;;5029584;28;20444;-66
2021/10/25 11:58:00;;;;;;;6.57;3.90;;;;;;;;;;5030255;28;20538;-67
2021/10/25 12:00:30;;;;;;;5.63;3.20;;;;;;;;;;5016641;28;20432;-67
2021/10/25 12:03:27;;;;;;;7.23;3.40;;;;;;;;;;5036993;28;20454;-66
2021/10/25 12:05:56;;;;;;;7.13;2.97;;;;;;;;;;5016808;28;20436;-66
2021/10/25 12:08:23;;;;;;;5.60;2.20;;;;;;;;;;5016992;28;20827;-67
2021/10/25 12:10:53;;;;;;;6.60;3.43;;;;;;;;;;5030183;28;20444;-66
2021/10/25 12:13:20;;;;;;;4.07;2.60;;;;;;;;;;5018554;28;20950;-67
2021/10/25 12:15:50;;;;;;;3.97;2.67;;;;;;;;;;5010772;28;20452;-66
2021/10/25 12:18:19;;;;;;;5.37;2.70;;;;;;;;;;5011796;28;20444;-67
2021/10/25 12:20:46;;;;;;;5.33;2.80;;;;;;;;;;5030785;28;20451;-67
2021/10/25 12:23:24;;;;;;;4.53;2.40;;;;;;;;;;5015843;28;21114;-66
2021/10/25 12:25:59;;;;;;;4.97;2.50;;;;;;;;;;5029971;28;20436;-66
2021/10/25 12:28:27;;;;;;;6.00;2.90;;;;;;;;;;5017134;28;20440;-65
2021/10/25 12:31:08;;;;;;;6.00;2.70;;;;;;;;;;5023898;28;20456;-63
2021/10/25 12:33:38;;;;;;;7.50;2.80;;;;;;;;;;5025862;28;20452;-66
2021/10/25 12:36:14;;;;;;;6.60;2.30;;;;;;;;;;5030203;28;20827;-67
2021/10/25 12:38:42;;;;;;;4.33;2.70;;;;;;;;;;5016405;28;21029;-64
2021/10/25 12:41:10;;;;;;;6.43;2.50;;;;;;;;;;5021715;28;20451;-65
2021/10/25 12:43:57;;;;;;;4.07;2.30;;;;;;;;;;5023555;28;20521;-65
2021/10/25 12:46:30;;;;;;;3.13;2.27;;;;;;;;;;5029163;28;20447;-63
2021/10/25 12:48:56;;;;;;;5.23;2.83;;;;;;;;;;5029632;28;20442;-65
2021/10/25 12:51:37;;;;;;;6.20;2.30;;;;;;;;;;5029184;28;20655;-65
2021/10/25 12:54:10;;;;;;;5.10;2.40;;;;;;;;;;5016832;28;20193;-65
2021/10/25 12:56:37;;;;;;;4.97;2.87;;;;;;;;;;5015303;28;20260;-66
2021/10/25 12:59:05;;;;;;;5.83;2.03;;;;;;;;;;5029728;28;20683;-65
2021/10/25 13:01:33;;;;;;;5.03;2.40;;;;;;;;;;5017070;28;20221;-64
2021/10/25 13:04:00;;;;;;;4.37;2.27;;;;;;;;;;5023506;28;20194;-65
2021/10/25 13:06:30;;;;;;;6.20;2.30;;;;;;;;;;5020109;28;20201;-65
2021/10/25 13:08:58;;;;;;;7.73;3.20;;;;;;;;;;5029414;28;20225;-65
2021/10/25 13:11:25;;;;;;;5.13;2.43;;;;;;;;;;5029474;28;20201;-64
2021/10/25 13:13:53;;;;;;;5.57;2.33;;;;;;;;;;5029202;28;20251;-64
2021/10/25 13:16:23;;;;;;;6.10;2.40;;;;;;;;;;5029119;28;20624;-65
2021/10/25 13:18:50;;;;;;;6.03;2.40;;;;;;;;;;5015676;28;20221;-65
2021/10/25 13:21:16;;;;;;;5.13;2.77;;;;;;;;;;5029183;28;20229;-65
2021/10/25 13:23:45;;;;;;;7.33;2.43;;;;;;;;;;5029064;28;20224;-64
2021/10/25 13:26:12;;;;;;;8.17;2.20;;;;;;;;;;5029070;28;20208;-65
2021/10/25 13:28:40;;;;;;;4.20;2.57;;;;;;;;;;5015535;28;20244;-65
2021/10/25 13:31:08;;;;;;;8.70;2.60;;;;;;;;;;5020645;28;20205;-64
2021/10/25 13:33:36;;;;;;;7.50;4.07;;;;;;;;;;5025061;28;20647;-65
2021/10/25 13:36:04;;;;;;;8.73;5.63;;;;;;;;;;5010924;28;20193;-65
2021/10/25 13:38:30;;;;;;;6.77;3.43;;;;;;;;;;5010709;28;20289;-66
2021/10/25 13:40:58;;;;;;;3.53;2.43;;;;;;;;;;5009381;28;20565;-64
2021/10/25 13:43:30;;;;;;;7.87;2.43;;;;;;;;;;5022182;28;20643;-66
2021/10/25 13:45:57;;;;;;;5.23;2.10;;;;;;;;;;5015682;28;20201;-65
2021/10/25 13:48:24;;;;;;;5.63;2.63;;;;;;;;;;5014502;28;20261;-64
2021/10/25 13:50:50;;;;;;;5.40;2.10;;;;;;;;;;5020613;28;20762;-64
2021/10/25 13:53:17;;;;;;;4.03;1.90;;;;;;;;;;5009280;28;20201;-65
2021/10/25 13:55:44;;;;;;;6.40;2.37;;;;;;;;;;5028925;28;20284;-64
2021/10/25 13:58:11;;;;;;;5.77;2.53;;;;;;;;;;5028586;28;20205;-65
2021/10/25 14:00:38;;;;;;;8.20;2.33;;;;;;;;;;5023253;28;20216;-64
2021/10/25 14:03:05;;;;;;;4.33;2.10;;;;;;;;;;5023918;28;20209;-66
2021/10/25 14:05:32;;;;;;;4.63;2.20;;;;;;;;;;5033149;28;20447;-65
2021/10/25 14:07:58;;;;;;;8.70;2.30;;;;;;;;;;5032056;28;20492;-65
2021/10/25 14:10:34;;;;;;;6.83;2.60;;;;;;;;;;5032261;28;20435;-64
2021/10/25 14:13:10;;;;;;;5.07;2.33;;;;;;;;;;5031922;28;20447;-67
2021/10/25 14:15:46;;;;;;;5.83;2.40;;;;;;;;;;5025470;28;20487;-66
2021/10/25 14:18:14;;;;;;;6.03;2.50;;;;;;;;;;5013042;28;20575;-65
2021/10/25 14:20:41;;;;;;;6.97;2.50;;;;;;;;;;5032965;28;20964;-64
2021/10/25 14:23:10;;;;;;;3.93;2.30;;;;;;;;;;5031800;28;20526;-65
2021/10/25 14:25:37;;;;;;;3.97;2.67;;;;;;;;;;5012464;28;20436;-66
2021/10/25 14:28:04;;;;;;;4.23;2.20;;;;;;;;;;5011982;28;20487;-66
2021/10/25 14:30:31;;;;;;;7.90;2.67;;;;;;;;;;5030268;28;20440;-66
2021/10/25 14:32:59;;;;;;;7.00;3.00;;;;;;;;;;5032116;28;20797;-65
2021/10/25 14:35:27;;;;;;;5.70;2.30;;;;;;;;;;5031770;28;20481;-64
2021/10/25 14:37:57;;;;;;;6.73;2.60;;;;;;;;;;5029137;28;20534;-65
2021/10/25 14:40:39;;;;;;;9.90;2.93;;;;;;;;;;5020902;28;20440;-65
2021/10/25 14:43:12;;;;;;;28.10;22.43;;;;;;;;;;5016522;28;20867;-65
2021/10/25 14:45:44;;;;;;;108.53;74.97;;;;;;;;;;5027153;28;20452;-65
2021/10/25 14:53:34;;;;;;;9.53;2.90;;;;;;;;;;5026624;28;20463;-65
2021/10/25 14:56:05;;;;;;;4.73;3.00;;;;;;;;;;5026550;28;20491;-64
2021/10/25 14:58:34;;;;;;;7.23;3.13;;;;;;;;;;5024921;28;20440;-64
2021/10/25 15:01:02;;;;;;;7.20;3.47;;;;;;;;;;5027157;28;20821;-65
2021/10/25 15:03:29;;;;;;;8.30;3.77;;;;;;;;;;5027578;28;20443;-64
2021/10/25 15:05:58;;;;;;;6.40;3.07;;;;;;;;;;5026661;28;20455;-65
2021/10/25 15:08:26;;;;;;;6.03;3.13;;;;;;;;;;5027143;28;20498;-63
2021/10/25 15:10:53;;;;;;;7.83;3.33;;;;;;;;;;5028440;28;20443;-65
2021/10/25 15:13:21;;;;;;;300.07;225.03;;;;;;;;;;5022856;28;21002;-65
2021/10/25 15:15:49;;;;;;;5.50;3.60;;;;;;;;;;5027018;28;20452;-66
2021/10/25 15:18:16;;;;;;;9.27;3.90;;;;;;;;;;5025519;28;20448;-63
2021/10/25 15:20:43;;;;;;;6.63;3.43;;;;;;;;;;5017587;28;21232;-63
2021/10/25 15:23:10;;;;;;;8.47;3.83;;;;;;;;;;5019008;28;20882;-64
2021/10/25 15:25:38;;;;;;;8.30;3.67;;;;;;;;;;5027130;28;20436;-64
2021/10/25 15:28:07;;;;;;;9.23;4.10;;;;;;;;;;5019192;28;20488;-63
2021/10/25 15:30:35;;;;;;;7.03;3.90;;;;;;;;;;5026780;28;20980;-64
2021/10/25 15:33:03;;;;;;;6.40;3.70;;;;;;;;;;5028529;28;20454;-64
2021/10/25 15:35:32;;;;;;;7.93;4.13;;;;;;;;;;5033814;28;20436;-67
2021/10/25 15:37:59;;;;;;;8.67;4.30;;;;;;;;;;5020767;28;20457;-63
2021/10/25 15:40:29;;;;;;;8.80;4.47;;;;;;;;;;5030653;28;20440;-64
2021/10/25 15:42:57;;;;;;;9.07;4.37;;;;;;;;;;5021637;28;20523;-63
2021/10/25 15:45:24;;;;;;;11.23;4.30;;;;;;;;;;5019063;28;20459;-63
2021/10/25 15:47:51;;;;;;;10.27;4.90;;;;;;;;;;5010358;28;20594;-65
2021/10/25 15:50:18;;;;;;;11.07;4.50;;;;;;;;;;5014379;28;20847;-65
2021/10/25 15:52:44;;;;;;;7.93;4.10;;;;;;;;;;5029895;28;20500;-64
2021/10/25 15:55:12;;;;;;;9.50;4.50;;;;;;;;;;5015636;28;20515;-64
2021/10/25 15:57:39;;;;;;;11.10;4.90;;;;;;;;;;5028784;28;20448;-64
2021/10/25 16:00:08;;;;;;;8.37;4.40;;;;;;;;;;5019469;28;20451;-68
2021/10/25 16:02:40;;;;;;;10.17;5.63;;;;;;;;;;5026322;28;20440;-69
2021/10/25 16:05:09;;;;;;;10.53;5.40;;;;;;;;;;5026343;28;20479;-66
2021/10/25 16:07:36;;;;;;;11.87;5.63;;;;;;;;;;5025370;28;20475;-67
2021/10/25 16:10:04;;;;;;;14.63;6.83;;;;;;;;;;5026868;28;20481;-68
2021/10/25 16:12:31;;;;;;;35.80;17.40;;;;;;;;;;5027429;28;20448;-65
2021/10/25 16:14:59;;;;;;;8.83;6.10;;;;;;;;;;5010083;28;20537;-66
2021/10/25 16:17:26;;;;;;;8.23;5.90;;;;;;;;;;5027404;28;20491;-62
2021/10/25 16:19:57;;;;;;;8.83;5.60;;;;;;;;;;5029346;28;20444;-65
2021/10/25 16:22:25;;;;;;;11.37;6.23;;;;;;;;;;5021098;28;20479;-63
2021/10/25 16:24:52;;;;;;;7.90;5.63;;;;;;;;;;5026294;28;20436;-63
2021/10/25 16:27:19;;;;;;;11.67;6.30;;;;;;;;;;5027657;28;20902;-64
2021/10/25 16:29:46;;;;;;;11.47;5.93;;;;;;;;;;5023667;28;20437;-65
2021/10/25 16:32:13;;;;;;;10.03;6.07;;;;;;;;;;5025482;28;20502;-65
2021/10/25 16:34:40;;;;;;;10.37;6.93;;;;;;;;;;5027840;28;20464;-67
2021/10/25 16:37:09;;;;;;;84.27;61.07;;;;;;;;;;5024731;28;20450;-63
2021/10/25 16:39:37;;;;;;;57.33;48.10;;;;;;;;;;5007243;28;20524;-66
2021/10/25 16:42:06;;;;;;;13.87;7.20;;;;;;;;;;5012874;28;21192;-67